sensor_id;sensor_type;location;lat;lon;timestamp;temperature;humidity
22444;DHT22;11389;50.864;4.330;2022-09-09T00:02:03;15.00;99.90
22444;DHT22;11389;50.864;4.330;2022-09-09T00:04:34;15.10;99.90
22444;DHT22;11389;50.864;4.330;2022-09-09T00:09:52;15.00;99.90
22444;DHT22;11389;50.864;4.330;2022-09-09T00:12:39;15.00;99.90
22444;DHT22;11389;50.864;4.330;2022-09-09T00:15:14;15.00;99.90
22444;DHT22;11389;50.864;4.330;2022-09-09T00:25:34;15.00;99.90
22444;DHT22;11389;50.864;4.330;2022-09-09T00:28:13;15.00;99.90
22444;DHT22;11389;50.864;4.330;2022-09-09T00:30:43;15.00;99.90
22444;DHT22;11389;50.864;4.330;2022-09-09T00:33:12;15.00;99.90
22444;DHT22;11389;50.864;4.330;2022-09-09T00:35:47;15.00;99.90
22444;DHT22;11389;50.864;4.330;2022-09-09T00:38:16;15.10;99.90
22444;DHT22;11389;50.864;4.330;2022-09-09T00:43:51;15.20;99.90
22444;DHT22;11389;50.864;4.330;2022-09-09T00:57:34;15.10;99.90
22444;DHT22;11389;50.864;4.330;2022-09-09T01:00:23;15.20;99.90
22444;DHT22;11389;50.864;4.330;2022-09-09T01:03:06;15.20;99.90
22444;DHT22;11389;50.864;4.330;2022-09-09T01:11:25;15.20;99.90
22444;DHT22;11389;50.864;4.330;2022-09-09T01:13:59;15.20;99.90
22444;DHT22;11389;50.864;4.330;2022-09-09T01:16:29;15.30;99.90
22444;DHT22;11389;50.864;4.330;2022-09-09T01:18:58;15.20;99.90
22444;DHT22;11389;50.864;4.330;2022-09-09T01:21:43;15.20;99.90
22444;DHT22;11389;50.864;4.330;2022-09-09T01:24:40;15.30;99.90
22444;DHT22;11389;50.864;4.330;2022-09-09T01:27:09;15.30;99.90
22444;DHT22;11389;50.864;4.330;2022-09-09T01:29:37;15.30;99.90
22444;DHT22;11389;50.864;4.330;2022-09-09T01:35:07;15.30;99.90
22444;DHT22;11389;50.864;4.330;2022-09-09T01:37:35;15.30;99.90
22444;DHT22;11389;50.864;4.330;2022-09-09T01:40:02;15.30;99.90
22444;DHT22;11389;50.864;4.330;2022-09-09T01:42:29;15.20;99.90
22444;DHT22;11389;50.864;4.330;2022-09-09T01:44:56;15.20;99.90
22444;DHT22;11389;50.864;4.330;2022-09-09T01:47:23;15.20;99.90
22444;DHT22;11389;50.864;4.330;2022-09-09T01:49:50;15.20;99.90
22444;DHT22;11389;50.864;4.330;2022-09-09T01:52:17;15.20;99.90
22444;DHT22;11389;50.864;4.330;2022-09-09T01:54:43;15.20;99.90
22444;DHT22;11389;50.864;4.330;2022-09-09T01:57:35;15.30;99.90
22444;DHT22;11389;50.864;4.330;2022-09-09T02:00:11;15.30;99.90
22444;DHT22;11389;50.864;4.330;2022-09-09T02:08:10;15.20;99.90
22444;DHT22;11389;50.864;4.330;2022-09-09T02:13:20;15.20;99.90
22444;DHT22;11389;50.864;4.330;2022-09-09T02:18:40;15.30;99.90
22444;DHT22;11389;50.864;4.330;2022-09-09T02:21:09;15.30;99.90
22444;DHT22;11389;50.864;4.330;2022-09-09T02:23:40;15.30;99.90
22444;DHT22;11389;50.864;4.330;2022-09-09T02:26:10;15.30;99.90
22444;DHT22;11389;50.864;4.330;2022-09-09T02:28:40;15.30;99.90
22444;DHT22;11389;50.864;4.330;2022-09-09T02:31:08;15.30;99.90
22444;DHT22;11389;50.864;4.330;2022-09-09T02:33:42;15.30;99.90
22444;DHT22;11389;50.864;4.330;2022-09-09T02:36:11;15.30;99.90
22444;DHT22;11389;50.864;4.330;2022-09-09T02:38:46;15.30;99.90
22444;DHT22;11389;50.864;4.330;2022-09-09T02:41:30;15.30;99.90
22444;DHT22;11389;50.864;4.330;2022-09-09T02:43:58;15.30;99.90
22444;DHT22;11389;50.864;4.330;2022-09-09T02:52:05;15.30;99.90
22444;DHT22;11389;50.864;4.330;2022-09-09T02:54:38;15.40;99.90
22444;DHT22;11389;50.864;4.330;2022-09-09T02:57:16;15.40;99.90
22444;DHT22;11389;50.864;4.330;2022-09-09T02:59:45;15.40;99.90
22444;DHT22;11389;50.864;4.330;2022-09-09T03:02:12;15.30;99.90
22444;DHT22;11389;50.864;4.330;2022-09-09T03:04:40;15.40;99.90
22444;DHT22;11389;50.864;4.330;2022-09-09T03:07:08;15.40;99.90
22444;DHT22;11389;50.864;4.330;2022-09-09T03:09:36;15.30;99.90
22444;DHT22;11389;50.864;4.330;2022-09-09T03:12:03;15.30;99.90
22444;DHT22;11389;50.864;4.330;2022-09-09T03:14:33;15.30;99.90
22444;DHT22;11389;50.864;4.330;2022-09-09T03:17:00;15.40;99.90
22444;DHT22;11389;50.864;4.330;2022-09-09T03:19:28;15.40;99.90
22444;DHT22;11389;50.864;4.330;2022-09-09T03:21:57;15.40;99.90
22444;DHT22;11389;50.864;4.330;2022-09-09T03:24:24;15.40;99.90
22444;DHT22;11389;50.864;4.330;2022-09-09T03:26:51;15.30;99.90
22444;DHT22;11389;50.864;4.330;2022-09-09T03:29:19;15.40;99.90
22444;DHT22;11389;50.864;4.330;2022-09-09T03:31:45;15.30;99.90
22444;DHT22;11389;50.864;4.330;2022-09-09T03:34:13;15.40;99.90
22444;DHT22;11389;50.864;4.330;2022-09-09T03:36:40;15.40;99.90
22444;DHT22;11389;50.864;4.330;2022-09-09T03:39:07;15.40;99.90
22444;DHT22;11389;50.864;4.330;2022-09-09T03:41:34;15.40;99.90
22444;DHT22;11389;50.864;4.330;2022-09-09T03:44:01;15.40;99.90
22444;DHT22;11389;50.864;4.330;2022-09-09T03:46:28;15.30;99.90
22444;DHT22;11389;50.864;4.330;2022-09-09T03:48:55;15.40;99.90
22444;DHT22;11389;50.864;4.330;2022-09-09T03:51:22;15.30;99.90
22444;DHT22;11389;50.864;4.330;2022-09-09T03:53:49;15.30;99.90
22444;DHT22;11389;50.864;4.330;2022-09-09T03:56:16;15.30;99.90
22444;DHT22;11389;50.864;4.330;2022-09-09T03:58:43;15.40;99.90
22444;DHT22;11389;50.864;4.330;2022-09-09T04:01:12;15.40;99.90
22444;DHT22;11389;50.864;4.330;2022-09-09T04:03:40;15.40;99.90
22444;DHT22;11389;50.864;4.330;2022-09-09T04:06:09;15.40;99.90
22444;DHT22;11389;50.864;4.330;2022-09-09T04:08:37;15.40;99.90
22444;DHT22;11389;50.864;4.330;2022-09-09T04:11:05;15.40;99.90
22444;DHT22;11389;50.864;4.330;2022-09-09T04:13:34;15.50;99.90
22444;DHT22;11389;50.864;4.330;2022-09-09T04:16:02;15.40;99.90
22444;DHT22;11389;50.864;4.330;2022-09-09T04:18:30;15.40;99.90
22444;DHT22;11389;50.864;4.330;2022-09-09T04:20:57;15.40;99.90
22444;DHT22;11389;50.864;4.330;2022-09-09T04:23:26;15.40;99.90
22444;DHT22;11389;50.864;4.330;2022-09-09T04:25:57;15.30;99.90
22444;DHT22;11389;50.864;4.330;2022-09-09T04:28:26;15.30;99.90
22444;DHT22;11389;50.864;4.330;2022-09-09T04:30:54;15.30;99.90
22444;DHT22;11389;50.864;4.330;2022-09-09T04:33:21;15.30;99.90
22444;DHT22;11389;50.864;4.330;2022-09-09T04:35:49;15.30;99.90
22444;DHT22;11389;50.864;4.330;2022-09-09T04:38:17;15.30;99.90
22444;DHT22;11389;50.864;4.330;2022-09-09T04:40:46;15.30;99.90
22444;DHT22;11389;50.864;4.330;2022-09-09T04:43:13;15.30;99.90
22444;DHT22;11389;50.864;4.330;2022-09-09T04:45:47;15.20;99.90
22444;DHT22;11389;50.864;4.330;2022-09-09T04:48:14;15.30;99.90
22444;DHT22;11389;50.864;4.330;2022-09-09T04:50:42;15.30;99.90
22444;DHT22;11389;50.864;4.330;2022-09-09T04:53:09;15.30;99.90
22444;DHT22;11389;50.864;4.330;2022-09-09T04:55:36;15.30;99.90
22444;DHT22;11389;50.864;4.330;2022-09-09T04:58:07;15.30;99.90
22444;DHT22;11389;50.864;4.330;2022-09-09T05:00:35;15.30;99.90
22444;DHT22;11389;50.864;4.330;2022-09-09T05:03:06;15.30;99.90
22444;DHT22;11389;50.864;4.330;2022-09-09T05:05:33;15.30;99.90
22444;DHT22;11389;50.864;4.330;2022-09-09T05:08:05;15.30;99.90
22444;DHT22;11389;50.864;4.330;2022-09-09T05:10:33;15.30;99.90
22444;DHT22;11389;50.864;4.330;2022-09-09T05:13:00;15.40;99.90
22444;DHT22;11389;50.864;4.330;2022-09-09T05:15:27;15.40;99.90
22444;DHT22;11389;50.864;4.330;2022-09-09T05:18:01;15.40;99.90
22444;DHT22;11389;50.864;4.330;2022-09-09T05:20:29;15.40;99.90
22444;DHT22;11389;50.864;4.330;2022-09-09T05:22:56;15.40;99.90
22444;DHT22;11389;50.864;4.330;2022-09-09T05:25:23;15.40;99.90
22444;DHT22;11389;50.864;4.330;2022-09-09T05:27:53;15.50;99.90
22444;DHT22;11389;50.864;4.330;2022-09-09T05:30:21;15.40;99.90
22444;DHT22;11389;50.864;4.330;2022-09-09T05:32:51;15.40;99.90
22444;DHT22;11389;50.864;4.330;2022-09-09T05:35:18;15.40;99.90
22444;DHT22;11389;50.864;4.330;2022-09-09T05:37:45;15.40;99.90
22444;DHT22;11389;50.864;4.330;2022-09-09T05:40:12;15.50;99.90
22444;DHT22;11389;50.864;4.330;2022-09-09T05:42:40;15.40;99.90
22444;DHT22;11389;50.864;4.330;2022-09-09T05:45:08;15.40;99.90
22444;DHT22;11389;50.864;4.330;2022-09-09T05:47:36;15.40;99.90
22444;DHT22;11389;50.864;4.330;2022-09-09T05:50:04;15.40;99.90
22444;DHT22;11389;50.864;4.330;2022-09-09T05:52:31;15.40;99.90
22444;DHT22;11389;50.864;4.330;2022-09-09T05:54:59;15.50;99.90
22444;DHT22;11389;50.864;4.330;2022-09-09T05:57:26;15.50;99.90
22444;DHT22;11389;50.864;4.330;2022-09-09T05:59:53;15.50;99.90
22444;DHT22;11389;50.864;4.330;2022-09-09T06:02:20;15.50;99.90
22444;DHT22;11389;50.864;4.330;2022-09-09T06:04:47;15.50;99.90
22444;DHT22;11389;50.864;4.330;2022-09-09T06:07:14;15.60;99.90
22444;DHT22;11389;50.864;4.330;2022-09-09T06:09:41;15.70;99.90
22444;DHT22;11389;50.864;4.330;2022-09-09T06:12:08;15.80;99.90
22444;DHT22;11389;50.864;4.330;2022-09-09T06:14:35;15.90;99.90
22444;DHT22;11389;50.864;4.330;2022-09-09T06:17:03;16.00;99.90
22444;DHT22;11389;50.864;4.330;2022-09-09T06:19:30;16.10;99.90
22444;DHT22;11389;50.864;4.330;2022-09-09T06:21:57;16.10;99.90
22444;DHT22;11389;50.864;4.330;2022-09-09T06:24:25;16.10;99.90
22444;DHT22;11389;50.864;4.330;2022-09-09T06:26:52;16.10;99.90
22444;DHT22;11389;50.864;4.330;2022-09-09T06:29:18;16.10;99.90
22444;DHT22;11389;50.864;4.330;2022-09-09T06:31:46;16.10;99.90
22444;DHT22;11389;50.864;4.330;2022-09-09T06:34:14;16.10;99.90
22444;DHT22;11389;50.864;4.330;2022-09-09T06:36:41;16.20;99.90
22444;DHT22;11389;50.864;4.330;2022-09-09T06:39:09;16.20;99.90
22444;DHT22;11389;50.864;4.330;2022-09-09T06:41:40;16.20;99.90
22444;DHT22;11389;50.864;4.330;2022-09-09T06:44:09;16.20;99.90
22444;DHT22;11389;50.864;4.330;2022-09-09T06:46:38;16.20;99.90
22444;DHT22;11389;50.864;4.330;2022-09-09T06:49:08;16.20;99.90
22444;DHT22;11389;50.864;4.330;2022-09-09T06:51:36;16.10;99.90
22444;DHT22;11389;50.864;4.330;2022-09-09T06:54:09;16.20;99.90
22444;DHT22;11389;50.864;4.330;2022-09-09T06:56:39;16.30;99.90
22444;DHT22;11389;50.864;4.330;2022-09-09T06:59:10;16.30;99.90
22444;DHT22;11389;50.864;4.330;2022-09-09T07:01:42;16.30;99.90
22444;DHT22;11389;50.864;4.330;2022-09-09T07:04:10;16.30;99.90
22444;DHT22;11389;50.864;4.330;2022-09-09T07:06:40;16.30;99.90
22444;DHT22;11389;50.864;4.330;2022-09-09T07:09:09;16.50;99.90
22444;DHT22;11389;50.864;4.330;2022-09-09T07:11:41;16.50;99.90
22444;DHT22;11389;50.864;4.330;2022-09-09T07:14:09;16.50;99.90
22444;DHT22;11389;50.864;4.330;2022-09-09T07:16:38;16.40;99.90
22444;DHT22;11389;50.864;4.330;2022-09-09T07:19:07;16.50;99.90
22444;DHT22;11389;50.864;4.330;2022-09-09T07:21:34;16.50;99.90
22444;DHT22;11389;50.864;4.330;2022-09-09T07:24:01;16.60;99.90
22444;DHT22;11389;50.864;4.330;2022-09-09T07:26:30;16.60;99.90
22444;DHT22;11389;50.864;4.330;2022-09-09T07:28:57;16.60;99.90
22444;DHT22;11389;50.864;4.330;2022-09-09T07:31:33;16.60;99.90
22444;DHT22;11389;50.864;4.330;2022-09-09T07:34:02;16.60;99.90
22444;DHT22;11389;50.864;4.330;2022-09-09T07:36:31;16.60;99.90
22444;DHT22;11389;50.864;4.330;2022-09-09T07:39:08;16.60;99.90
22444;DHT22;11389;50.864;4.330;2022-09-09T07:41:40;16.40;99.90
22444;DHT22;11389;50.864;4.330;2022-09-09T07:44:16;16.10;99.90
22444;DHT22;11389;50.864;4.330;2022-09-09T07:46:44;15.90;99.90
22444;DHT22;11389;50.864;4.330;2022-09-09T07:49:12;15.90;99.90
22444;DHT22;11389;50.864;4.330;2022-09-09T07:51:42;15.90;99.90
22444;DHT22;11389;50.864;4.330;2022-09-09T07:54:12;15.90;99.90
22444;DHT22;11389;50.864;4.330;2022-09-09T07:56:40;15.90;99.90
22444;DHT22;11389;50.864;4.330;2022-09-09T07:59:07;15.90;99.90
22444;DHT22;11389;50.864;4.330;2022-09-09T08:01:38;16.00;99.90
22444;DHT22;11389;50.864;4.330;2022-09-09T08:04:25;16.20;99.90
22444;DHT22;11389;50.864;4.330;2022-09-09T08:06:58;16.30;99.90
22444;DHT22;11389;50.864;4.330;2022-09-09T08:09:26;16.40;99.90
22444;DHT22;11389;50.864;4.330;2022-09-09T08:11:56;16.50;99.90
22444;DHT22;11389;50.864;4.330;2022-09-09T08:14:23;16.60;99.90
22444;DHT22;11389;50.864;4.330;2022-09-09T08:16:50;16.80;99.90
22444;DHT22;11389;50.864;4.330;2022-09-09T08:19:20;16.80;99.90
22444;DHT22;11389;50.864;4.330;2022-09-09T08:21:47;16.80;99.90
22444;DHT22;11389;50.864;4.330;2022-09-09T08:24:15;16.80;99.90
22444;DHT22;11389;50.864;4.330;2022-09-09T08:26:45;16.70;99.90
22444;DHT22;11389;50.864;4.330;2022-09-09T08:29:13;16.80;99.90
22444;DHT22;11389;50.864;4.330;2022-09-09T08:31:46;16.80;99.90
22444;DHT22;11389;50.864;4.330;2022-09-09T08:34:14;16.80;99.90
22444;DHT22;11389;50.864;4.330;2022-09-09T08:36:43;16.80;99.90
22444;DHT22;11389;50.864;4.330;2022-09-09T08:39:13;16.70;99.90
22444;DHT22;11389;50.864;4.330;2022-09-09T08:47:47;16.40;99.90
22444;DHT22;11389;50.864;4.330;2022-09-09T08:50:30;16.20;99.90
22444;DHT22;11389;50.864;4.330;2022-09-09T08:55:44;16.00;99.90
22444;DHT22;11389;50.864;4.330;2022-09-09T08:58:27;16.00;99.90
22444;DHT22;11389;50.864;4.330;2022-09-09T09:06:55;16.00;99.90
22444;DHT22;11389;50.864;4.330;2022-09-09T09:09:38;16.00;99.90
22444;DHT22;11389;50.864;4.330;2022-09-09T09:12:19;15.90;99.90
22444;DHT22;11389;50.864;4.330;2022-09-09T09:14:48;16.00;99.90
22444;DHT22;11389;50.864;4.330;2022-09-09T09:17:20;16.00;99.90
22444;DHT22;11389;50.864;4.330;2022-09-09T09:19:48;16.00;99.90
22444;DHT22;11389;50.864;4.330;2022-09-09T09:22:30;16.00;99.90
22444;DHT22;11389;50.864;4.330;2022-09-09T09:31:10;16.10;99.90
22444;DHT22;11389;50.864;4.330;2022-09-09T09:36:08;16.10;99.90
22444;DHT22;11389;50.864;4.330;2022-09-09T09:38:36;16.00;99.90
22444;DHT22;11389;50.864;4.330;2022-09-09T09:41:40;16.10;99.90
22444;DHT22;11389;50.864;4.330;2022-09-09T09:44:40;16.10;99.90
22444;DHT22;11389;50.864;4.330;2022-09-09T09:47:18;16.00;99.90
22444;DHT22;11389;50.864;4.330;2022-09-09T09:49:54;16.00;99.90
22444;DHT22;11389;50.864;4.330;2022-09-09T09:52:29;16.00;99.90
22444;DHT22;11389;50.864;4.330;2022-09-09T09:54:58;16.10;99.90
22444;DHT22;11389;50.864;4.330;2022-09-09T09:57:33;16.10;99.90
22444;DHT22;11389;50.864;4.330;2022-09-09T10:00:13;16.20;99.90
22444;DHT22;11389;50.864;4.330;2022-09-09T10:02:42;16.20;99.90
22444;DHT22;11389;50.864;4.330;2022-09-09T10:08:11;16.30;99.90
22444;DHT22;11389;50.864;4.330;2022-09-09T10:19:21;16.80;99.90
22444;DHT22;11389;50.864;4.330;2022-09-09T10:30:54;17.40;99.90
22444;DHT22;11389;50.864;4.330;2022-09-09T10:33:45;17.70;99.90
22444;DHT22;11389;50.864;4.330;2022-09-09T10:36:24;17.80;99.90
22444;DHT22;11389;50.864;4.330;2022-09-09T10:38:59;18.00;99.90
22444;DHT22;11389;50.864;4.330;2022-09-09T10:55:45;18.90;99.90
22444;DHT22;11389;50.864;4.330;2022-09-09T10:58:22;18.80;99.90
22444;DHT22;11389;50.864;4.330;2022-09-09T11:00:57;18.90;99.90
22444;DHT22;11389;50.864;4.330;2022-09-09T11:03:28;18.80;99.90
22444;DHT22;11389;50.864;4.330;2022-09-09T11:08:30;18.60;99.90
22444;DHT22;11389;50.864;4.330;2022-09-09T11:11:16;18.60;99.90
22444;DHT22;11389;50.864;4.330;2022-09-09T11:14:07;18.70;99.90
22444;DHT22;11389;50.864;4.330;2022-09-09T11:21:44;18.60;99.90
22444;DHT22;11389;50.864;4.330;2022-09-09T11:24:23;18.70;99.90
22444;DHT22;11389;50.864;4.330;2022-09-09T11:27:02;18.70;99.90
22444;DHT22;11389;50.864;4.330;2022-09-09T11:40:45;18.50;99.90
22444;DHT22;11389;50.864;4.330;2022-09-09T11:43:17;18.40;99.90
22444;DHT22;11389;50.864;4.330;2022-09-09T11:45:52;18.40;99.90
22444;DHT22;11389;50.864;4.330;2022-09-09T11:48:36;18.30;99.90
22444;DHT22;11389;50.864;4.330;2022-09-09T11:51:11;18.40;99.90
22444;DHT22;11389;50.864;4.330;2022-09-09T12:01:33;18.50;99.90
22444;DHT22;11389;50.864;4.330;2022-09-09T12:06:53;18.30;99.90
22444;DHT22;11389;50.864;4.330;2022-09-09T12:09:29;18.30;99.90
22444;DHT22;11389;50.864;4.330;2022-09-09T12:17:42;18.20;99.90
22444;DHT22;11389;50.864;4.330;2022-09-09T12:28:27;18.30;99.90
22444;DHT22;11389;50.864;4.330;2022-09-09T12:31:23;18.30;99.90
22444;DHT22;11389;50.864;4.330;2022-09-09T12:33:52;18.20;99.90
22444;DHT22;11389;50.864;4.330;2022-09-09T12:36:23;18.20;99.90
22444;DHT22;11389;50.864;4.330;2022-09-09T12:38:51;18.40;99.90
22444;DHT22;11389;50.864;4.330;2022-09-09T12:41:24;18.50;99.90
22444;DHT22;11389;50.864;4.330;2022-09-09T12:44:02;18.70;99.90
22444;DHT22;11389;50.864;4.330;2022-09-09T12:46:41;18.80;99.90
22444;DHT22;11389;50.864;4.330;2022-09-09T12:51:57;19.10;99.90
22444;DHT22;11389;50.864;4.330;2022-09-09T12:54:25;19.10;99.90
22444;DHT22;11389;50.864;4.330;2022-09-09T12:56:52;19.10;99.90
22444;DHT22;11389;50.864;4.330;2022-09-09T12:59:27;19.20;99.90
22444;DHT22;11389;50.864;4.330;2022-09-09T13:02:01;19.60;99.90
22444;DHT22;11389;50.864;4.330;2022-09-09T13:04:29;19.70;99.90
22444;DHT22;11389;50.864;4.330;2022-09-09T13:07:06;19.60;99.90
22444;DHT22;11389;50.864;4.330;2022-09-09T13:09:33;19.60;99.90
22444;DHT22;11389;50.864;4.330;2022-09-09T13:12:02;19.70;99.90
22444;DHT22;11389;50.864;4.330;2022-09-09T13:14:34;19.70;99.90
22444;DHT22;11389;50.864;4.330;2022-09-09T13:17:05;20.00;99.90
22444;DHT22;11389;50.864;4.330;2022-09-09T13:19:38;20.20;99.90
22444;DHT22;11389;50.864;4.330;2022-09-09T13:24:46;20.30;99.90
22444;DHT22;11389;50.864;4.330;2022-09-09T13:27:51;20.10;99.90
22444;DHT22;11389;50.864;4.330;2022-09-09T13:30:31;20.10;99.90
22444;DHT22;11389;50.864;4.330;2022-09-09T13:33:22;20.30;99.90
22444;DHT22;11389;50.864;4.330;2022-09-09T13:38:20;20.90;99.90
22444;DHT22;11389;50.864;4.330;2022-09-09T13:40:57;21.00;99.90
22444;DHT22;11389;50.864;4.330;2022-09-09T13:43:26;21.00;99.90
22444;DHT22;11389;50.864;4.330;2022-09-09T13:45:55;21.10;99.90
22444;DHT22;11389;50.864;4.330;2022-09-09T13:48:23;21.70;99.90
22444;DHT22;11389;50.864;4.330;2022-09-09T13:50:55;22.30;99.90
22444;DHT22;11389;50.864;4.330;2022-09-09T13:53:22;22.30;99.90
22444;DHT22;11389;50.864;4.330;2022-09-09T13:55:50;22.20;99.90
22444;DHT22;11389;50.864;4.330;2022-09-09T13:58:19;22.10;99.90
22444;DHT22;11389;50.864;4.330;2022-09-09T14:00:46;21.80;99.90
22444;DHT22;11389;50.864;4.330;2022-09-09T14:03:13;21.70;99.90
22444;DHT22;11389;50.864;4.330;2022-09-09T14:05:40;21.80;99.90
22444;DHT22;11389;50.864;4.330;2022-09-09T14:08:07;21.70;99.90
22444;DHT22;11389;50.864;4.330;2022-09-09T14:10:40;21.60;99.90
22444;DHT22;11389;50.864;4.330;2022-09-09T14:13:07;22.00;99.90
22444;DHT22;11389;50.864;4.330;2022-09-09T14:15:34;22.40;99.90
22444;DHT22;11389;50.864;4.330;2022-09-09T14:18:01;22.50;99.90
22444;DHT22;11389;50.864;4.330;2022-09-09T14:20:28;22.10;99.90
22444;DHT22;11389;50.864;4.330;2022-09-09T14:22:55;21.50;99.90
22444;DHT22;11389;50.864;4.330;2022-09-09T14:25:29;21.30;99.90
22444;DHT22;11389;50.864;4.330;2022-09-09T14:27:56;20.90;99.90
22444;DHT22;11389;50.864;4.330;2022-09-09T14:30:23;20.70;99.90
22444;DHT22;11389;50.864;4.330;2022-09-09T14:32:50;20.60;99.90
22444;DHT22;11389;50.864;4.330;2022-09-09T14:35:17;20.80;99.90
22444;DHT22;11389;50.864;4.330;2022-09-09T14:37:44;21.20;99.90
22444;DHT22;11389;50.864;4.330;2022-09-09T14:40:11;21.50;99.90
22444;DHT22;11389;50.864;4.330;2022-09-09T14:42:38;21.70;99.90
22444;DHT22;11389;50.864;4.330;2022-09-09T14:45:06;21.70;99.90
22444;DHT22;11389;50.864;4.330;2022-09-09T14:47:33;21.60;99.90
22444;DHT22;11389;50.864;4.330;2022-09-09T14:50:00;21.70;99.90
22444;DHT22;11389;50.864;4.330;2022-09-09T14:52:27;21.70;99.90
22444;DHT22;11389;50.864;4.330;2022-09-09T14:54:56;21.90;99.90
22444;DHT22;11389;50.864;4.330;2022-09-09T14:57:23;21.90;99.90
22444;DHT22;11389;50.864;4.330;2022-09-09T14:59:50;21.80;99.90
22444;DHT22;11389;50.864;4.330;2022-09-09T15:02:17;22.00;99.90
22444;DHT22;11389;50.864;4.330;2022-09-09T15:04:44;22.30;99.90
22444;DHT22;11389;50.864;4.330;2022-09-09T15:07:11;22.40;99.90
22444;DHT22;11389;50.864;4.330;2022-09-09T15:09:38;22.00;99.90
22444;DHT22;11389;50.864;4.330;2022-09-09T15:12:05;21.90;99.90
22444;DHT22;11389;50.864;4.330;2022-09-09T15:14:32;21.60;99.90
22444;DHT22;11389;50.864;4.330;2022-09-09T15:16:59;21.30;99.90
22444;DHT22;11389;50.864;4.330;2022-09-09T15:19:26;21.30;99.90
22444;DHT22;11389;50.864;4.330;2022-09-09T15:21:54;21.20;99.90
22444;DHT22;11389;50.864;4.330;2022-09-09T15:24:21;21.50;99.90
22444;DHT22;11389;50.864;4.330;2022-09-09T15:26:49;21.60;99.90
22444;DHT22;11389;50.864;4.330;2022-09-09T15:29:15;21.30;99.90
22444;DHT22;11389;50.864;4.330;2022-09-09T15:31:42;21.10;99.90
22444;DHT22;11389;50.864;4.330;2022-09-09T15:34:09;20.80;99.90
22444;DHT22;11389;50.864;4.330;2022-09-09T15:36:41;20.70;99.90
22444;DHT22;11389;50.864;4.330;2022-09-09T15:39:12;20.60;99.90
22444;DHT22;11389;50.864;4.330;2022-09-09T15:41:39;20.50;99.90
22444;DHT22;11389;50.864;4.330;2022-09-09T15:44:07;20.90;99.90
22444;DHT22;11389;50.864;4.330;2022-09-09T15:46:41;21.40;99.90
22444;DHT22;11389;50.864;4.330;2022-09-09T15:49:22;21.70;99.90
22444;DHT22;11389;50.864;4.330;2022-09-09T15:51:54;21.70;99.90
22444;DHT22;11389;50.864;4.330;2022-09-09T15:54:22;21.50;99.90
22444;DHT22;11389;50.864;4.330;2022-09-09T15:56:52;21.10;99.90
22444;DHT22;11389;50.864;4.330;2022-09-09T15:59:26;21.10;99.90
22444;DHT22;11389;50.864;4.330;2022-09-09T16:01:54;21.00;99.90
22444;DHT22;11389;50.864;4.330;2022-09-09T16:04:23;20.80;99.90
22444;DHT22;11389;50.864;4.330;2022-09-09T16:06:52;20.80;99.90
22444;DHT22;11389;50.864;4.330;2022-09-09T16:09:19;20.70;99.90
22444;DHT22;11389;50.864;4.330;2022-09-09T16:11:46;20.50;99.90
22444;DHT22;11389;50.864;4.330;2022-09-09T16:14:14;20.30;99.90
22444;DHT22;11389;50.864;4.330;2022-09-09T16:16:45;20.10;99.90
22444;DHT22;11389;50.864;4.330;2022-09-09T16:19:12;20.00;99.90
22444;DHT22;11389;50.864;4.330;2022-09-09T16:21:43;19.90;99.90
22444;DHT22;11389;50.864;4.330;2022-09-09T16:24:12;19.80;99.90
22444;DHT22;11389;50.864;4.330;2022-09-09T16:26:42;19.40;99.90
22444;DHT22;11389;50.864;4.330;2022-09-09T16:29:13;18.90;99.90
22444;DHT22;11389;50.864;4.330;2022-09-09T16:31:41;18.70;99.90
22444;DHT22;11389;50.864;4.330;2022-09-09T16:34:09;18.60;99.90
22444;DHT22;11389;50.864;4.330;2022-09-09T16:36:37;18.50;99.90
22444;DHT22;11389;50.864;4.330;2022-09-09T16:39:09;18.60;99.90
22444;DHT22;11389;50.864;4.330;2022-09-09T16:41:37;18.60;99.90
22444;DHT22;11389;50.864;4.330;2022-09-09T16:44:07;18.40;99.90
22444;DHT22;11389;50.864;4.330;2022-09-09T16:46:37;18.40;99.90
22444;DHT22;11389;50.864;4.330;2022-09-09T16:49:07;18.50;99.90
22444;DHT22;11389;50.864;4.330;2022-09-09T16:51:49;18.60;99.90
22444;DHT22;11389;50.864;4.330;2022-09-09T16:54:19;18.60;99.90
22444;DHT22;11389;50.864;4.330;2022-09-09T16:56:47;18.70;99.90
22444;DHT22;11389;50.864;4.330;2022-09-09T16:59:17;18.60;99.90
22444;DHT22;11389;50.864;4.330;2022-09-09T17:01:46;18.70;99.90
22444;DHT22;11389;50.864;4.330;2022-09-09T17:04:16;18.70;99.90
22444;DHT22;11389;50.864;4.330;2022-09-09T17:06:51;18.90;99.90
22444;DHT22;11389;50.864;4.330;2022-09-09T17:09:19;18.90;99.90
22444;DHT22;11389;50.864;4.330;2022-09-09T17:11:47;18.80;99.90
22444;DHT22;11389;50.864;4.330;2022-09-09T17:14:17;18.60;99.90
22444;DHT22;11389;50.864;4.330;2022-09-09T17:16:45;18.60;99.90
22444;DHT22;11389;50.864;4.330;2022-09-09T17:19:14;18.70;99.90
22444;DHT22;11389;50.864;4.330;2022-09-09T17:21:41;18.60;99.90
22444;DHT22;11389;50.864;4.330;2022-09-09T17:24:28;18.60;99.90
22444;DHT22;11389;50.864;4.330;2022-09-09T17:26:56;18.70;99.90
22444;DHT22;11389;50.864;4.330;2022-09-09T17:29:24;18.60;99.90
22444;DHT22;11389;50.864;4.330;2022-09-09T17:31:53;18.70;99.90
22444;DHT22;11389;50.864;4.330;2022-09-09T17:34:22;18.70;99.90
22444;DHT22;11389;50.864;4.330;2022-09-09T17:36:52;18.60;99.90
22444;DHT22;11389;50.864;4.330;2022-09-09T17:39:21;18.50;99.90
22444;DHT22;11389;50.864;4.330;2022-09-09T17:41:51;18.50;99.90
22444;DHT22;11389;50.864;4.330;2022-09-09T17:44:21;18.50;99.90
22444;DHT22;11389;50.864;4.330;2022-09-09T17:46:52;18.50;99.90
22444;DHT22;11389;50.864;4.330;2022-09-09T17:49:21;18.40;99.90
22444;DHT22;11389;50.864;4.330;2022-09-09T17:51:48;18.30;99.90
22444;DHT22;11389;50.864;4.330;2022-09-09T17:54:19;18.20;99.90
22444;DHT22;11389;50.864;4.330;2022-09-09T17:56:47;18.20;99.90
22444;DHT22;11389;50.864;4.330;2022-09-09T17:59:16;18.20;99.90
22444;DHT22;11389;50.864;4.330;2022-09-09T18:01:45;18.00;99.90
22444;DHT22;11389;50.864;4.330;2022-09-09T18:04:15;18.00;99.90
22444;DHT22;11389;50.864;4.330;2022-09-09T18:06:48;17.90;99.90
22444;DHT22;11389;50.864;4.330;2022-09-09T18:09:19;17.90;99.90
22444;DHT22;11389;50.864;4.330;2022-09-09T18:11:48;18.00;99.90
22444;DHT22;11389;50.864;4.330;2022-09-09T18:14:18;17.90;99.90
22444;DHT22;11389;50.864;4.330;2022-09-09T18:16:47;17.90;99.90
22444;DHT22;11389;50.864;4.330;2022-09-09T18:19:17;17.90;99.90
22444;DHT22;11389;50.864;4.330;2022-09-09T18:21:44;17.90;99.90
22444;DHT22;11389;50.864;4.330;2022-09-09T18:24:14;17.90;99.90
22444;DHT22;11389;50.864;4.330;2022-09-09T18:26:42;17.90;99.90
22444;DHT22;11389;50.864;4.330;2022-09-09T18:29:11;17.90;99.90
22444;DHT22;11389;50.864;4.330;2022-09-09T18:31:39;17.80;99.90